Terminal Aerodrome Forecast
Issued by NWS

Home | Current Version | Previous Version | Text Only | Print | Product List | Glossary On
Versions: 1 2 3 4 5 6 7 8 9 10 11 12 13
000
FTUS44 KEPZ 270341 AAA
TAFLRU
TAF AMD
KLRU 270341Z 2704/2724 24009KT P6SM SCT180 BKN250
     FM270700 29008KT P6SM SCT130 SCT250
     FM271800 23013G23KT P6SM FEW100 SCT250=

USA.gov is the U.S. government's official web portal to all federal, state and local government web resources and services.